sensor_id;sensor_type;location;lat;lon;timestamp;P1;durP1;ratioP1;P2;durP2;ratioP2
39324;SDS011;25037;49.488;9.900;2023-04-24T00:01:01;2.58;;;0.60;;
39324;SDS011;25037;49.488;9.900;2023-04-24T00:03:28;3.22;;;0.63;;
39324;SDS011;25037;49.488;9.900;2023-04-24T00:05:55;1.77;;;0.60;;
39324;SDS011;25037;49.488;9.900;2023-04-24T00:08:22;4.00;;;1.95;;
39324;SDS011;25037;49.488;9.900;2023-04-24T00:10:49;3.92;;;0.50;;
39324;SDS011;25037;49.488;9.900;2023-04-24T00:13:18;1.45;;;0.65;;
39324;SDS011;25037;49.488;9.900;2023-04-24T00:15:44;2.70;;;0.60;;
39324;SDS011;25037;49.488;9.900;2023-04-24T00:18:11;1.33;;;0.40;;
39324;SDS011;25037;49.488;9.900;2023-04-24T00:20:38;3.28;;;0.50;;
39324;SDS011;25037;49.488;9.900;2023-04-24T00:23:05;3.10;;;0.50;;
39324;SDS011;25037;49.488;9.900;2023-04-24T00:25:32;1.67;;;0.43;;
39324;SDS011;25037;49.488;9.900;2023-04-24T00:27:59;1.92;;;0.68;;
39324;SDS011;25037;49.488;9.900;2023-04-24T00:30:25;0.85;;;0.30;;
39324;SDS011;25037;49.488;9.900;2023-04-24T00:32:52;2.80;;;0.50;;
39324;SDS011;25037;49.488;9.900;2023-04-24T00:35:19;1.05;;;0.47;;
39324;SDS011;25037;49.488;9.900;2023-04-24T00:37:46;1.33;;;0.38;;
39324;SDS011;25037;49.488;9.900;2023-04-24T00:40:13;1.63;;;0.45;;
39324;SDS011;25037;49.488;9.900;2023-04-24T00:42:40;1.60;;;0.40;;
39324;SDS011;25037;49.488;9.900;2023-04-24T00:45:07;0.98;;;0.32;;
39324;SDS011;25037;49.488;9.900;2023-04-24T00:47:34;3.00;;;0.40;;
39324;SDS011;25037;49.488;9.900;2023-04-24T00:50:01;2.22;;;0.60;;
39324;SDS011;25037;49.488;9.900;2023-04-24T00:52:29;1.38;;;0.30;;
39324;SDS011;25037;49.488;9.900;2023-04-24T00:54:58;1.55;;;0.50;;
39324;SDS011;25037;49.488;9.900;2023-04-24T00:57:25;3.42;;;0.98;;
39324;SDS011;25037;49.488;9.900;2023-04-24T00:59:52;1.50;;;0.55;;
39324;SDS011;25037;49.488;9.900;2023-04-24T01:02:19;2.35;;;0.60;;
39324;SDS011;25037;49.488;9.900;2023-04-24T01:04:48;1.55;;;0.40;;
39324;SDS011;25037;49.488;9.900;2023-04-24T01:07:18;3.13;;;0.90;;
39324;SDS011;25037;49.488;9.900;2023-04-24T01:09:47;4.70;;;1.95;;
39324;SDS011;25037;49.488;9.900;2023-04-24T01:12:15;3.33;;;0.77;;
39324;SDS011;25037;49.488;9.900;2023-04-24T01:14:41;1.33;;;0.50;;
39324;SDS011;25037;49.488;9.900;2023-04-24T01:17:08;1.13;;;0.50;;
39324;SDS011;25037;49.488;9.900;2023-04-24T01:19:35;1.83;;;0.60;;
39324;SDS011;25037;49.488;9.900;2023-04-24T01:22:03;1.23;;;0.30;;
39324;SDS011;25037;49.488;9.900;2023-04-24T01:24:37;2.47;;;0.50;;
39324;SDS011;25037;49.488;9.900;2023-04-24T01:27:05;1.10;;;0.30;;
39324;SDS011;25037;49.488;9.900;2023-04-24T01:29:31;1.30;;;0.38;;
39324;SDS011;25037;49.488;9.900;2023-04-24T01:31:58;4.05;;;0.40;;
39324;SDS011;25037;49.488;9.900;2023-04-24T01:34:25;1.08;;;0.30;;
39324;SDS011;25037;49.488;9.900;2023-04-24T01:36:52;1.48;;;0.40;;
39324;SDS011;25037;49.488;9.900;2023-04-24T01:39:19;1.25;;;0.20;;
39324;SDS011;25037;49.488;9.900;2023-04-24T01:41:46;1.35;;;0.40;;
39324;SDS011;25037;49.488;9.900;2023-04-24T01:44:13;1.65;;;0.40;;
39324;SDS011;25037;49.488;9.900;2023-04-24T01:46:40;1.35;;;0.50;;
39324;SDS011;25037;49.488;9.900;2023-04-24T01:49:07;1.13;;;0.28;;
39324;SDS011;25037;49.488;9.900;2023-04-24T01:51:34;1.48;;;0.20;;
39324;SDS011;25037;49.488;9.900;2023-04-24T01:54:01;1.83;;;0.30;;
39324;SDS011;25037;49.488;9.900;2023-04-24T01:56:28;2.13;;;0.40;;
39324;SDS011;25037;49.488;9.900;2023-04-24T01:58:56;1.42;;;0.32;;
39324;SDS011;25037;49.488;9.900;2023-04-24T02:01:24;2.38;;;0.30;;
39324;SDS011;25037;49.488;9.900;2023-04-24T02:03:51;0.90;;;0.30;;
39324;SDS011;25037;49.488;9.900;2023-04-24T02:06:18;2.67;;;0.35;;
39324;SDS011;25037;49.488;9.900;2023-04-24T02:08:44;1.80;;;0.47;;
39324;SDS011;25037;49.488;9.900;2023-04-24T02:11:11;1.08;;;0.20;;
39324;SDS011;25037;49.488;9.900;2023-04-24T02:13:37;1.30;;;0.40;;
39324;SDS011;25037;49.488;9.900;2023-04-24T02:16:04;2.67;;;0.75;;
39324;SDS011;25037;49.488;9.900;2023-04-24T02:18:31;1.50;;;0.30;;
39324;SDS011;25037;49.488;9.900;2023-04-24T02:20:57;2.60;;;0.30;;
39324;SDS011;25037;49.488;9.900;2023-04-24T02:23:24;1.90;;;0.50;;
39324;SDS011;25037;49.488;9.900;2023-04-24T02:25:51;2.83;;;0.35;;
39324;SDS011;25037;49.488;9.900;2023-04-24T02:28:19;1.42;;;0.30;;
39324;SDS011;25037;49.488;9.900;2023-04-24T02:30:46;1.85;;;0.50;;
39324;SDS011;25037;49.488;9.900;2023-04-24T02:33:12;1.35;;;0.50;;
39324;SDS011;25037;49.488;9.900;2023-04-24T02:35:39;1.38;;;0.32;;
39324;SDS011;25037;49.488;9.900;2023-04-24T02:38:06;2.67;;;0.50;;
39324;SDS011;25037;49.488;9.900;2023-04-24T02:40:32;0.82;;;0.30;;
39324;SDS011;25037;49.488;9.900;2023-04-24T02:42:59;2.10;;;0.40;;
39324;SDS011;25037;49.488;9.900;2023-04-24T02:45:26;2.72;;;0.40;;
39324;SDS011;25037;49.488;9.900;2023-04-24T02:47:52;2.30;;;0.57;;
39324;SDS011;25037;49.488;9.900;2023-04-24T02:50:19;2.30;;;0.30;;
39324;SDS011;25037;49.488;9.900;2023-04-24T02:52:46;1.65;;;0.35;;
39324;SDS011;25037;49.488;9.900;2023-04-24T02:55:13;1.77;;;0.38;;
39324;SDS011;25037;49.488;9.900;2023-04-24T02:57:39;2.05;;;0.35;;
39324;SDS011;25037;49.488;9.900;2023-04-24T03:00:06;1.40;;;0.30;;
39324;SDS011;25037;49.488;9.900;2023-04-24T03:02:33;1.17;;;0.40;;
39324;SDS011;25037;49.488;9.900;2023-04-24T03:05:00;1.73;;;0.35;;
39324;SDS011;25037;49.488;9.900;2023-04-24T03:07:28;1.98;;;0.50;;
39324;SDS011;25037;49.488;9.900;2023-04-24T03:09:55;2.42;;;0.30;;
39324;SDS011;25037;49.488;9.900;2023-04-24T03:12:23;2.28;;;0.50;;
39324;SDS011;25037;49.488;9.900;2023-04-24T03:14:50;2.00;;;0.57;;
39324;SDS011;25037;49.488;9.900;2023-04-24T03:17:17;1.65;;;0.40;;
39324;SDS011;25037;49.488;9.900;2023-04-24T03:19:43;1.65;;;0.35;;
39324;SDS011;25037;49.488;9.900;2023-04-24T03:22:10;1.25;;;0.30;;
39324;SDS011;25037;49.488;9.900;2023-04-24T03:24:38;1.38;;;0.30;;
39324;SDS011;25037;49.488;9.900;2023-04-24T03:27:05;2.13;;;0.57;;
39324;SDS011;25037;49.488;9.900;2023-04-24T03:29:31;2.13;;;0.60;;
39324;SDS011;25037;49.488;9.900;2023-04-24T03:31:58;3.50;;;0.52;;
39324;SDS011;25037;49.488;9.900;2023-04-24T03:34:25;2.20;;;0.60;;
39324;SDS011;25037;49.488;9.900;2023-04-24T03:36:52;1.95;;;0.40;;
39324;SDS011;25037;49.488;9.900;2023-04-24T03:39:18;1.33;;;0.50;;
39324;SDS011;25037;49.488;9.900;2023-04-24T03:41:45;0.95;;;0.30;;
39324;SDS011;25037;49.488;9.900;2023-04-24T03:44:12;1.67;;;0.30;;
39324;SDS011;25037;49.488;9.900;2023-04-24T03:46:38;0.90;;;0.20;;
39324;SDS011;25037;49.488;9.900;2023-04-24T03:49:05;1.05;;;0.35;;
39324;SDS011;25037;49.488;9.900;2023-04-24T03:51:32;2.90;;;0.47;;
39324;SDS011;25037;49.488;9.900;2023-04-24T03:53:58;2.00;;;0.40;;
39324;SDS011;25037;49.488;9.900;2023-04-24T03:56:25;2.88;;;0.50;;
39324;SDS011;25037;49.488;9.900;2023-04-24T03:58:52;2.17;;;0.40;;
39324;SDS011;25037;49.488;9.900;2023-04-24T04:01:18;1.25;;;0.45;;
39324;SDS011;25037;49.488;9.900;2023-04-24T04:03:46;1.02;;;0.43;;
39324;SDS011;25037;49.488;9.900;2023-04-24T04:06:14;3.35;;;0.95;;
39324;SDS011;25037;49.488;9.900;2023-04-24T04:08:40;3.00;;;1.08;;
39324;SDS011;25037;49.488;9.900;2023-04-24T04:11:07;1.10;;;0.40;;
39324;SDS011;25037;49.488;9.900;2023-04-24T04:13:34;1.58;;;0.50;;
39324;SDS011;25037;49.488;9.900;2023-04-24T04:16:00;3.20;;;0.70;;
39324;SDS011;25037;49.488;9.900;2023-04-24T04:18:27;1.38;;;0.28;;
39324;SDS011;25037;49.488;9.900;2023-04-24T04:20:54;1.42;;;0.32;;
39324;SDS011;25037;49.488;9.900;2023-04-24T04:23:20;2.78;;;0.52;;
39324;SDS011;25037;49.488;9.900;2023-04-24T04:25:47;0.73;;;0.20;;
39324;SDS011;25037;49.488;9.900;2023-04-24T04:28:14;2.38;;;0.40;;
39324;SDS011;25037;49.488;9.900;2023-04-24T04:30:41;0.95;;;0.30;;
39324;SDS011;25037;49.488;9.900;2023-04-24T04:33:08;2.10;;;0.47;;
39324;SDS011;25037;49.488;9.900;2023-04-24T04:35:36;2.30;;;0.30;;
39324;SDS011;25037;49.488;9.900;2023-04-24T04:38:03;3.08;;;0.45;;
39324;SDS011;25037;49.488;9.900;2023-04-24T04:40:30;3.03;;;0.63;;
39324;SDS011;25037;49.488;9.900;2023-04-24T04:42:57;1.77;;;0.43;;
39324;SDS011;25037;49.488;9.900;2023-04-24T04:45:24;2.22;;;0.38;;
39324;SDS011;25037;49.488;9.900;2023-04-24T04:47:53;3.22;;;0.55;;
39324;SDS011;25037;49.488;9.900;2023-04-24T04:50:21;1.38;;;0.43;;
39324;SDS011;25037;49.488;9.900;2023-04-24T04:52:49;1.45;;;0.52;;
39324;SDS011;25037;49.488;9.900;2023-04-24T04:55:15;4.40;;;0.43;;
39324;SDS011;25037;49.488;9.900;2023-04-24T04:57:42;1.52;;;0.43;;
39324;SDS011;25037;49.488;9.900;2023-04-24T05:00:09;2.08;;;0.50;;
39324;SDS011;25037;49.488;9.900;2023-04-24T05:02:37;3.35;;;0.40;;
39324;SDS011;25037;49.488;9.900;2023-04-24T05:05:05;1.45;;;0.30;;
39324;SDS011;25037;49.488;9.900;2023-04-24T05:07:32;1.20;;;0.30;;
39324;SDS011;25037;49.488;9.900;2023-04-24T05:09:59;2.08;;;0.50;;
39324;SDS011;25037;49.488;9.900;2023-04-24T05:12:26;1.67;;;0.45;;
39324;SDS011;25037;49.488;9.900;2023-04-24T05:14:53;2.10;;;0.40;;
39324;SDS011;25037;49.488;9.900;2023-04-24T05:17:19;0.77;;;0.30;;
39324;SDS011;25037;49.488;9.900;2023-04-24T05:19:46;1.83;;;0.50;;
39324;SDS011;25037;49.488;9.900;2023-04-24T05:22:14;1.73;;;0.35;;
39324;SDS011;25037;49.488;9.900;2023-04-24T05:24:41;1.60;;;0.30;;
39324;SDS011;25037;49.488;9.900;2023-04-24T05:27:08;1.13;;;0.30;;
39324;SDS011;25037;49.488;9.900;2023-04-24T05:29:35;2.22;;;0.40;;
39324;SDS011;25037;49.488;9.900;2023-04-24T05:32:01;1.05;;;0.20;;
39324;SDS011;25037;49.488;9.900;2023-04-24T05:34:28;1.42;;;0.35;;
39324;SDS011;25037;49.488;9.900;2023-04-24T05:36:55;0.70;;;0.28;;
39324;SDS011;25037;49.488;9.900;2023-04-24T05:39:21;0.75;;;0.10;;
39324;SDS011;25037;49.488;9.900;2023-04-24T05:41:48;1.30;;;0.32;;
39324;SDS011;25037;49.488;9.900;2023-04-24T05:44:15;1.42;;;0.28;;
39324;SDS011;25037;49.488;9.900;2023-04-24T05:46:41;1.23;;;0.30;;
39324;SDS011;25037;49.488;9.900;2023-04-24T05:49:08;1.60;;;0.32;;
39324;SDS011;25037;49.488;9.900;2023-04-24T05:51:35;1.33;;;0.30;;
39324;SDS011;25037;49.488;9.900;2023-04-24T05:54:01;0.93;;;0.30;;
39324;SDS011;25037;49.488;9.900;2023-04-24T05:56:29;1.10;;;0.30;;
39324;SDS011;25037;49.488;9.900;2023-04-24T05:58:55;1.42;;;0.47;;
39324;SDS011;25037;49.488;9.900;2023-04-24T06:01:22;2.25;;;0.40;;
39324;SDS011;25037;49.488;9.900;2023-04-24T06:03:49;2.72;;;0.57;;
39324;SDS011;25037;49.488;9.900;2023-04-24T06:06:16;1.30;;;0.55;;
39324;SDS011;25037;49.488;9.900;2023-04-24T06:08:42;2.10;;;0.60;;
39324;SDS011;25037;49.488;9.900;2023-04-24T06:11:10;1.25;;;0.50;;
39324;SDS011;25037;49.488;9.900;2023-04-24T06:13:37;1.88;;;0.60;;
39324;SDS011;25037;49.488;9.900;2023-04-24T06:16:04;4.55;;;0.70;;
39324;SDS011;25037;49.488;9.900;2023-04-24T06:18:31;2.75;;;0.70;;
39324;SDS011;25037;49.488;9.900;2023-04-24T06:20:58;2.13;;;0.80;;
39324;SDS011;25037;49.488;9.900;2023-04-24T06:23:24;2.00;;;0.60;;
39324;SDS011;25037;49.488;9.900;2023-04-24T06:25:51;1.65;;;0.70;;
39324;SDS011;25037;49.488;9.900;2023-04-24T06:28:18;1.98;;;0.60;;
39324;SDS011;25037;49.488;9.900;2023-04-24T06:30:44;1.63;;;0.50;;
39324;SDS011;25037;49.488;9.900;2023-04-24T06:33:11;2.40;;;0.93;;
39324;SDS011;25037;49.488;9.900;2023-04-24T06:35:47;1.38;;;0.68;;
39324;SDS011;25037;49.488;9.900;2023-04-24T06:38:14;2.00;;;0.80;;
39324;SDS011;25037;49.488;9.900;2023-04-24T06:40:42;2.55;;;0.85;;
39324;SDS011;25037;49.488;9.900;2023-04-24T06:43:11;2.03;;;0.90;;
39324;SDS011;25037;49.488;9.900;2023-04-24T06:45:38;1.88;;;0.80;;
39324;SDS011;25037;49.488;9.900;2023-04-24T06:48:06;2.10;;;0.88;;
39324;SDS011;25037;49.488;9.900;2023-04-24T06:50:32;3.60;;;1.02;;
39324;SDS011;25037;49.488;9.900;2023-04-24T06:52:59;2.13;;;1.10;;
39324;SDS011;25037;49.488;9.900;2023-04-24T06:55:26;1.73;;;0.95;;
39324;SDS011;25037;49.488;9.900;2023-04-24T06:57:52;1.90;;;0.90;;
39324;SDS011;25037;49.488;9.900;2023-04-24T07:00:19;3.25;;;1.10;;
39324;SDS011;25037;49.488;9.900;2023-04-24T07:02:46;3.22;;;1.05;;
39324;SDS011;25037;49.488;9.900;2023-04-24T07:05:13;2.40;;;1.17;;
39324;SDS011;25037;49.488;9.900;2023-04-24T07:07:41;2.22;;;1.00;;
39324;SDS011;25037;49.488;9.900;2023-04-24T07:10:08;2.65;;;1.35;;
39324;SDS011;25037;49.488;9.900;2023-04-24T07:12:35;2.83;;;1.48;;
39324;SDS011;25037;49.488;9.900;2023-04-24T07:15:02;2.95;;;1.50;;
39324;SDS011;25037;49.488;9.900;2023-04-24T07:17:29;2.55;;;1.23;;
39324;SDS011;25037;49.488;9.900;2023-04-24T07:19:56;4.55;;;1.50;;
39324;SDS011;25037;49.488;9.900;2023-04-24T07:22:22;2.70;;;1.42;;
39324;SDS011;25037;49.488;9.900;2023-04-24T07:24:49;2.28;;;1.25;;
39324;SDS011;25037;49.488;9.900;2023-04-24T07:27:16;3.53;;;1.52;;
39324;SDS011;25037;49.488;9.900;2023-04-24T07:29:42;2.60;;;1.60;;
39324;SDS011;25037;49.488;9.900;2023-04-24T07:32:09;3.00;;;1.42;;
39324;SDS011;25037;49.488;9.900;2023-04-24T07:34:36;3.28;;;1.40;;
39324;SDS011;25037;49.488;9.900;2023-04-24T07:37:03;3.25;;;1.73;;
39324;SDS011;25037;49.488;9.900;2023-04-24T07:39:30;3.63;;;1.67;;
39324;SDS011;25037;49.488;9.900;2023-04-24T07:41:56;2.65;;;1.10;;
39324;SDS011;25037;49.488;9.900;2023-04-24T07:44:25;2.65;;;1.40;;
39324;SDS011;25037;49.488;9.900;2023-04-24T07:46:52;4.00;;;1.63;;
39324;SDS011;25037;49.488;9.900;2023-04-24T07:49:19;3.75;;;1.40;;
39324;SDS011;25037;49.488;9.900;2023-04-24T07:51:46;3.55;;;1.60;;
39324;SDS011;25037;49.488;9.900;2023-04-24T07:54:12;3.90;;;2.00;;
39324;SDS011;25037;49.488;9.900;2023-04-24T07:56:40;3.10;;;1.20;;
39324;SDS011;25037;49.488;9.900;2023-04-24T07:59:08;2.60;;;1.40;;
39324;SDS011;25037;49.488;9.900;2023-04-24T08:01:36;2.13;;;1.15;;
39324;SDS011;25037;49.488;9.900;2023-04-24T08:04:03;2.90;;;1.40;;
39324;SDS011;25037;49.488;9.900;2023-04-24T08:06:31;5.10;;;1.73;;
39324;SDS011;25037;49.488;9.900;2023-04-24T08:08:58;4.25;;;1.95;;
39324;SDS011;25037;49.488;9.900;2023-04-24T08:11:25;3.55;;;1.50;;
39324;SDS011;25037;49.488;9.900;2023-04-24T08:13:52;3.05;;;1.50;;
39324;SDS011;25037;49.488;9.900;2023-04-24T08:16:20;2.80;;;1.63;;
39324;SDS011;25037;49.488;9.900;2023-04-24T08:18:47;4.32;;;1.50;;
39324;SDS011;25037;49.488;9.900;2023-04-24T08:21:14;3.47;;;1.27;;
39324;SDS011;25037;49.488;9.900;2023-04-24T08:23:43;4.30;;;1.48;;
39324;SDS011;25037;49.488;9.900;2023-04-24T08:26:10;4.25;;;1.50;;
39324;SDS011;25037;49.488;9.900;2023-04-24T08:28:38;3.40;;;1.50;;
39324;SDS011;25037;49.488;9.900;2023-04-24T08:31:05;3.15;;;1.52;;
39324;SDS011;25037;49.488;9.900;2023-04-24T08:33:31;2.85;;;1.38;;
39324;SDS011;25037;49.488;9.900;2023-04-24T08:36:04;2.10;;;1.30;;
39324;SDS011;25037;49.488;9.900;2023-04-24T08:38:32;2.00;;;0.88;;
39324;SDS011;25037;49.488;9.900;2023-04-24T08:41:00;2.17;;;0.95;;
39324;SDS011;25037;49.488;9.900;2023-04-24T08:43:28;3.00;;;1.10;;
39324;SDS011;25037;49.488;9.900;2023-04-24T08:45:55;2.08;;;0.90;;
39324;SDS011;25037;49.488;9.900;2023-04-24T08:48:23;2.03;;;0.80;;
39324;SDS011;25037;49.488;9.900;2023-04-24T08:50:57;6.63;;;1.75;;
39324;SDS011;25037;49.488;9.900;2023-04-24T08:53:25;2.65;;;0.80;;
39324;SDS011;25037;49.488;9.900;2023-04-24T08:55:54;3.03;;;0.65;;
39324;SDS011;25037;49.488;9.900;2023-04-24T08:58:21;5.50;;;0.80;;
39324;SDS011;25037;49.488;9.900;2023-04-24T09:00:51;1.92;;;0.45;;
39324;SDS011;25037;49.488;9.900;2023-04-24T09:03:18;2.42;;;0.47;;
39324;SDS011;25037;49.488;9.900;2023-04-24T09:05:47;1.45;;;0.50;;
39324;SDS011;25037;49.488;9.900;2023-04-24T09:08:18;1.15;;;0.40;;
39324;SDS011;25037;49.488;9.900;2023-04-24T09:10:46;1.35;;;0.63;;
39324;SDS011;25037;49.488;9.900;2023-04-24T09:13:16;1.40;;;0.45;;
39324;SDS011;25037;49.488;9.900;2023-04-24T09:15:44;1.10;;;0.47;;
39324;SDS011;25037;49.488;9.900;2023-04-24T09:18:10;1.10;;;0.50;;
39324;SDS011;25037;49.488;9.900;2023-04-24T09:23:30;1.60;;;1.05;;
39324;SDS011;25037;49.488;9.900;2023-04-24T09:25:58;2.25;;;0.75;;
39324;SDS011;25037;49.488;9.900;2023-04-24T09:28:27;1.75;;;0.70;;
39324;SDS011;25037;49.488;9.900;2023-04-24T09:31:02;2.17;;;0.68;;
39324;SDS011;25037;49.488;9.900;2023-04-24T09:33:33;1.55;;;0.47;;
39324;SDS011;25037;49.488;9.900;2023-04-24T09:36:00;3.10;;;1.05;;
39324;SDS011;25037;49.488;9.900;2023-04-24T09:38:35;2.15;;;0.70;;
39324;SDS011;25037;49.488;9.900;2023-04-24T09:41:04;2.30;;;1.05;;
39324;SDS011;25037;49.488;9.900;2023-04-24T09:43:33;1.13;;;0.50;;
39324;SDS011;25037;49.488;9.900;2023-04-24T09:46:05;3.80;;;0.80;;
39324;SDS011;25037;49.488;9.900;2023-04-24T09:48:36;2.28;;;0.60;;
39324;SDS011;25037;49.488;9.900;2023-04-24T09:51:05;1.60;;;0.73;;
39324;SDS011;25037;49.488;9.900;2023-04-24T09:53:33;1.88;;;0.82;;
39324;SDS011;25037;49.488;9.900;2023-04-24T09:56:06;3.22;;;0.80;;
39324;SDS011;25037;49.488;9.900;2023-04-24T09:58:34;1.25;;;0.60;;
39324;SDS011;25037;49.488;9.900;2023-04-24T10:01:02;1.20;;;0.65;;
39324;SDS011;25037;49.488;9.900;2023-04-24T10:03:29;1.25;;;0.63;;
39324;SDS011;25037;49.488;9.900;2023-04-24T10:06:00;1.50;;;0.80;;
39324;SDS011;25037;49.488;9.900;2023-04-24T10:08:34;1.95;;;0.70;;
39324;SDS011;25037;49.488;9.900;2023-04-24T10:11:02;2.17;;;0.80;;
39324;SDS011;25037;49.488;9.900;2023-04-24T10:13:29;2.42;;;1.40;;
39324;SDS011;25037;49.488;9.900;2023-04-24T10:15:57;1.67;;;0.82;;
39324;SDS011;25037;49.488;9.900;2023-04-24T10:18:26;1.77;;;1.02;;
39324;SDS011;25037;49.488;9.900;2023-04-24T10:20:53;1.92;;;0.90;;
39324;SDS011;25037;49.488;9.900;2023-04-24T10:23:21;2.17;;;1.00;;
39324;SDS011;25037;49.488;9.900;2023-04-24T10:25:49;2.47;;;1.25;;
39324;SDS011;25037;49.488;9.900;2023-04-24T10:28:18;2.67;;;1.20;;
39324;SDS011;25037;49.488;9.900;2023-04-24T10:30:45;3.05;;;1.13;;
39324;SDS011;25037;49.488;9.900;2023-04-24T10:33:12;2.95;;;0.80;;
39324;SDS011;25037;49.488;9.900;2023-04-24T10:35:44;2.10;;;0.70;;
39324;SDS011;25037;49.488;9.900;2023-04-24T10:38:16;1.92;;;0.90;;
39324;SDS011;25037;49.488;9.900;2023-04-24T10:40:47;2.22;;;1.15;;
39324;SDS011;25037;49.488;9.900;2023-04-24T10:43:16;1.75;;;1.10;;
39324;SDS011;25037;49.488;9.900;2023-04-24T10:46:00;2.22;;;0.80;;
39324;SDS011;25037;49.488;9.900;2023-04-24T10:48:29;2.05;;;1.08;;
39324;SDS011;25037;49.488;9.900;2023-04-24T10:50:56;2.33;;;0.93;;
39324;SDS011;25037;49.488;9.900;2023-04-24T10:53:24;1.92;;;1.00;;
39324;SDS011;25037;49.488;9.900;2023-04-24T10:56:04;2.60;;;0.90;;
39324;SDS011;25037;49.488;9.900;2023-04-24T10:58:40;1.83;;;1.08;;
39324;SDS011;25037;49.488;9.900;2023-04-24T11:03:56;2.97;;;1.55;;
39324;SDS011;25037;49.488;9.900;2023-04-24T11:06:35;1.98;;;0.85;;
39324;SDS011;25037;49.488;9.900;2023-04-24T11:09:03;1.48;;;0.60;;
39324;SDS011;25037;49.488;9.900;2023-04-24T11:11:34;2.53;;;1.10;;
39324;SDS011;25037;49.488;9.900;2023-04-24T11:14:03;1.98;;;1.00;;
39324;SDS011;25037;49.488;9.900;2023-04-24T11:16:34;1.40;;;0.80;;
39324;SDS011;25037;49.488;9.900;2023-04-24T11:21:40;1.67;;;0.90;;
39324;SDS011;25037;49.488;9.900;2023-04-24T11:24:28;2.47;;;0.90;;
39324;SDS011;25037;49.488;9.900;2023-04-24T11:27:15;3.83;;;1.40;;
39324;SDS011;25037;49.488;9.900;2023-04-24T11:32:25;1.63;;;1.00;;
39324;SDS011;25037;49.488;9.900;2023-04-24T11:35:03;1.73;;;0.95;;
39324;SDS011;25037;49.488;9.900;2023-04-24T11:37:34;1.67;;;0.73;;
39324;SDS011;25037;49.488;9.900;2023-04-24T11:40:03;1.83;;;0.70;;
39324;SDS011;25037;49.488;9.900;2023-04-24T11:42:36;2.63;;;1.00;;
39324;SDS011;25037;49.488;9.900;2023-04-24T11:45:07;3.25;;;1.30;;
39324;SDS011;25037;49.488;9.900;2023-04-24T11:47:39;1.50;;;0.70;;
39324;SDS011;25037;49.488;9.900;2023-04-24T11:50:07;1.33;;;0.68;;
39324;SDS011;25037;49.488;9.900;2023-04-24T11:52:39;4.25;;;1.45;;
39324;SDS011;25037;49.488;9.900;2023-04-24T11:55:12;1.42;;;0.60;;
39324;SDS011;25037;49.488;9.900;2023-04-24T11:57:49;2.25;;;0.93;;
39324;SDS011;25037;49.488;9.900;2023-04-24T12:00:23;2.47;;;1.00;;
39324;SDS011;25037;49.488;9.900;2023-04-24T12:03:02;2.72;;;1.20;;
39324;SDS011;25037;49.488;9.900;2023-04-24T12:05:33;2.17;;;1.00;;
39324;SDS011;25037;49.488;9.900;2023-04-24T12:08:02;2.45;;;1.17;;
39324;SDS011;25037;49.488;9.900;2023-04-24T12:10:30;1.88;;;1.08;;
39324;SDS011;25037;49.488;9.900;2023-04-24T12:12:58;2.05;;;1.08;;
39324;SDS011;25037;49.488;9.900;2023-04-24T12:15:26;2.03;;;1.23;;
39324;SDS011;25037;49.488;9.900;2023-04-24T12:17:54;2.28;;;1.17;;
39324;SDS011;25037;49.488;9.900;2023-04-24T12:22:54;4.15;;;1.10;;
39324;SDS011;25037;49.488;9.900;2023-04-24T12:25:23;1.65;;;0.68;;
39324;SDS011;25037;49.488;9.900;2023-04-24T12:27:52;2.88;;;0.80;;
39324;SDS011;25037;49.488;9.900;2023-04-24T12:30:21;1.67;;;0.73;;
39324;SDS011;25037;49.488;9.900;2023-04-24T12:32:56;3.33;;;0.82;;
39324;SDS011;25037;49.488;9.900;2023-04-24T12:35:25;1.80;;;0.95;;
39324;SDS011;25037;49.488;9.900;2023-04-24T12:37:54;1.98;;;1.00;;
39324;SDS011;25037;49.488;9.900;2023-04-24T12:40:21;2.35;;;1.10;;
39324;SDS011;25037;49.488;9.900;2023-04-24T12:42:51;2.42;;;1.40;;
39324;SDS011;25037;49.488;9.900;2023-04-24T12:45:18;2.30;;;1.20;;
39324;SDS011;25037;49.488;9.900;2023-04-24T12:47:45;2.33;;;1.00;;
39324;SDS011;25037;49.488;9.900;2023-04-24T12:50:13;3.13;;;1.10;;
39324;SDS011;25037;49.488;9.900;2023-04-24T12:52:41;2.22;;;1.00;;
39324;SDS011;25037;49.488;9.900;2023-04-24T12:55:09;3.22;;;1.27;;
39324;SDS011;25037;49.488;9.900;2023-04-24T12:57:38;2.03;;;1.00;;
39324;SDS011;25037;49.488;9.900;2023-04-24T13:00:06;4.07;;;1.30;;
39324;SDS011;25037;49.488;9.900;2023-04-24T13:02:33;2.63;;;1.15;;
39324;SDS011;25037;49.488;9.900;2023-04-24T13:05:01;2.38;;;1.20;;
39324;SDS011;25037;49.488;9.900;2023-04-24T13:07:28;2.47;;;1.25;;
39324;SDS011;25037;49.488;9.900;2023-04-24T13:09:55;2.53;;;0.80;;
39324;SDS011;25037;49.488;9.900;2023-04-24T13:12:22;1.75;;;1.02;;
39324;SDS011;25037;49.488;9.900;2023-04-24T13:14:52;2.05;;;0.88;;
39324;SDS011;25037;49.488;9.900;2023-04-24T13:17:19;1.88;;;1.00;;
39324;SDS011;25037;49.488;9.900;2023-04-24T13:19:46;2.70;;;1.27;;
39324;SDS011;25037;49.488;9.900;2023-04-24T13:22:16;3.22;;;1.20;;
39324;SDS011;25037;49.488;9.900;2023-04-24T13:24:44;2.58;;;1.45;;
39324;SDS011;25037;49.488;9.900;2023-04-24T13:27:11;2.90;;;1.27;;
39324;SDS011;25037;49.488;9.900;2023-04-24T13:29:38;3.75;;;1.45;;
39324;SDS011;25037;49.488;9.900;2023-04-24T13:32:04;2.70;;;1.30;;
39324;SDS011;25037;49.488;9.900;2023-04-24T13:34:32;3.65;;;1.30;;
39324;SDS011;25037;49.488;9.900;2023-04-24T13:36:58;2.28;;;1.25;;
39324;SDS011;25037;49.488;9.900;2023-04-24T13:39:26;2.97;;;1.38;;
39324;SDS011;25037;49.488;9.900;2023-04-24T13:41:53;3.28;;;1.63;;
39324;SDS011;25037;49.488;9.900;2023-04-24T13:44:20;2.35;;;1.40;;
39324;SDS011;25037;49.488;9.900;2023-04-24T13:46:48;3.33;;;1.40;;
39324;SDS011;25037;49.488;9.900;2023-04-24T13:49:17;5.45;;;1.67;;
39324;SDS011;25037;49.488;9.900;2023-04-24T13:51:45;2.40;;;1.33;;
39324;SDS011;25037;49.488;9.900;2023-04-24T13:54:12;1.95;;;1.30;;
39324;SDS011;25037;49.488;9.900;2023-04-24T13:56:39;2.42;;;1.30;;
39324;SDS011;25037;49.488;9.900;2023-04-24T13:59:06;2.65;;;1.30;;
39324;SDS011;25037;49.488;9.900;2023-04-24T14:01:33;2.53;;;1.40;;
39324;SDS011;25037;49.488;9.900;2023-04-24T14:04:00;2.78;;;1.65;;
39324;SDS011;25037;49.488;9.900;2023-04-24T14:06:27;4.20;;;1.98;;
39324;SDS011;25037;49.488;9.900;2023-04-24T14:08:54;2.00;;;1.33;;
39324;SDS011;25037;49.488;9.900;2023-04-24T14:11:20;2.80;;;1.77;;
39324;SDS011;25037;49.488;9.900;2023-04-24T14:13:48;3.63;;;1.60;;
39324;SDS011;25037;49.488;9.900;2023-04-24T14:16:15;3.08;;;1.83;;
39324;SDS011;25037;49.488;9.900;2023-04-24T14:18:42;5.18;;;2.10;;
39324;SDS011;25037;49.488;9.900;2023-04-24T14:21:08;3.65;;;1.73;;
39324;SDS011;25037;49.488;9.900;2023-04-24T14:23:35;3.45;;;2.00;;
39324;SDS011;25037;49.488;9.900;2023-04-24T14:26:02;4.25;;;1.77;;
39324;SDS011;25037;49.488;9.900;2023-04-24T14:28:28;4.32;;;1.73;;
39324;SDS011;25037;49.488;9.900;2023-04-24T14:30:55;3.92;;;1.77;;
39324;SDS011;25037;49.488;9.900;2023-04-24T14:33:22;4.20;;;1.40;;
39324;SDS011;25037;49.488;9.900;2023-04-24T14:35:48;4.22;;;1.40;;
39324;SDS011;25037;49.488;9.900;2023-04-24T14:38:15;2.58;;;1.65;;
39324;SDS011;25037;49.488;9.900;2023-04-24T14:40:42;3.15;;;1.70;;
39324;SDS011;25037;49.488;9.900;2023-04-24T14:43:11;4.03;;;2.08;;
39324;SDS011;25037;49.488;9.900;2023-04-24T14:45:38;2.97;;;1.77;;
39324;SDS011;25037;49.488;9.900;2023-04-24T14:48:07;2.83;;;1.88;;
39324;SDS011;25037;49.488;9.900;2023-04-24T14:50:35;3.83;;;1.83;;
39324;SDS011;25037;49.488;9.900;2023-04-24T14:53:02;4.65;;;1.63;;
39324;SDS011;25037;49.488;9.900;2023-04-24T14:55:28;3.15;;;1.40;;
39324;SDS011;25037;49.488;9.900;2023-04-24T14:57:55;3.45;;;1.30;;
39324;SDS011;25037;49.488;9.900;2023-04-24T15:00:22;2.90;;;1.73;;
39324;SDS011;25037;49.488;9.900;2023-04-24T15:02:52;3.42;;;1.60;;
39324;SDS011;25037;49.488;9.900;2023-04-24T15:05:19;2.80;;;1.60;;